sensor_id;sensor_type;location;lat;lon;timestamp;temperature;humidity
2459;DHT22;1241;50.920;6.936;2023-04-25T00:01:21;9.20;99.90
2459;DHT22;1241;50.920;6.936;2023-04-25T00:03:49;9.10;99.90
2459;DHT22;1241;50.920;6.936;2023-04-25T00:06:16;9.10;99.90
2459;DHT22;1241;50.920;6.936;2023-04-25T00:08:43;9.10;99.90
2459;DHT22;1241;50.920;6.936;2023-04-25T00:11:09;9.10;99.90
2459;DHT22;1241;50.920;6.936;2023-04-25T00:13:35;9.10;99.90
2459;DHT22;1241;50.920;6.936;2023-04-25T00:16:00;9.10;99.90
2459;DHT22;1241;50.920;6.936;2023-04-25T00:18:28;9.20;99.90
2459;DHT22;1241;50.920;6.936;2023-04-25T00:20:58;9.20;99.90
2459;DHT22;1241;50.920;6.936;2023-04-25T00:23:24;9.30;99.90
2459;DHT22;1241;50.920;6.936;2023-04-25T00:25:50;9.10;99.90
2459;DHT22;1241;50.920;6.936;2023-04-25T00:28:16;9.10;99.90
2459;DHT22;1241;50.920;6.936;2023-04-25T00:30:43;8.90;99.90
2459;DHT22;1241;50.920;6.936;2023-04-25T00:33:09;8.80;99.90
2459;DHT22;1241;50.920;6.936;2023-04-25T00:35:35;8.80;99.90
2459;DHT22;1241;50.920;6.936;2023-04-25T00:38:01;8.70;99.90
2459;DHT22;1241;50.920;6.936;2023-04-25T00:40:28;8.70;99.90
2459;DHT22;1241;50.920;6.936;2023-04-25T00:42:54;8.60;99.90
2459;DHT22;1241;50.920;6.936;2023-04-25T00:45:19;8.60;99.90
2459;DHT22;1241;50.920;6.936;2023-04-25T00:47:46;8.60;99.90
2459;DHT22;1241;50.920;6.936;2023-04-25T00:50:13;8.50;99.90
2459;DHT22;1241;50.920;6.936;2023-04-25T00:52:43;8.50;99.90
2459;DHT22;1241;50.920;6.936;2023-04-25T00:55:10;8.40;99.90
2459;DHT22;1241;50.920;6.936;2023-04-25T00:57:37;8.40;99.90
2459;DHT22;1241;50.920;6.936;2023-04-25T01:00:06;8.30;99.90
2459;DHT22;1241;50.920;6.936;2023-04-25T01:02:36;8.30;99.90
2459;DHT22;1241;50.920;6.936;2023-04-25T01:05:03;8.20;99.90
2459;DHT22;1241;50.920;6.936;2023-04-25T01:07:29;8.20;99.90
2459;DHT22;1241;50.920;6.936;2023-04-25T01:09:56;8.20;99.90
2459;DHT22;1241;50.920;6.936;2023-04-25T01:12:23;8.20;99.90
2459;DHT22;1241;50.920;6.936;2023-04-25T01:14:49;8.10;99.90
2459;DHT22;1241;50.920;6.936;2023-04-25T01:17:15;8.10;99.90
2459;DHT22;1241;50.920;6.936;2023-04-25T01:19:42;8.10;99.90
2459;DHT22;1241;50.920;6.936;2023-04-25T01:22:07;8.10;99.90
2459;DHT22;1241;50.920;6.936;2023-04-25T01:24:35;8.10;99.90
2459;DHT22;1241;50.920;6.936;2023-04-25T01:27:02;8.00;99.90
2459;DHT22;1241;50.920;6.936;2023-04-25T01:29:30;7.90;99.90
2459;DHT22;1241;50.920;6.936;2023-04-25T01:31:57;7.80;99.90
2459;DHT22;1241;50.920;6.936;2023-04-25T01:34:24;7.90;99.90
2459;DHT22;1241;50.920;6.936;2023-04-25T01:36:50;7.90;99.90
2459;DHT22;1241;50.920;6.936;2023-04-25T01:39:17;7.90;99.90
2459;DHT22;1241;50.920;6.936;2023-04-25T01:41:45;8.00;99.90
2459;DHT22;1241;50.920;6.936;2023-04-25T01:44:11;7.90;99.90
2459;DHT22;1241;50.920;6.936;2023-04-25T01:46:37;7.90;99.90
2459;DHT22;1241;50.920;6.936;2023-04-25T01:49:04;7.90;99.90
2459;DHT22;1241;50.920;6.936;2023-04-25T01:51:31;7.90;99.90
2459;DHT22;1241;50.920;6.936;2023-04-25T01:53:57;7.90;99.90
2459;DHT22;1241;50.920;6.936;2023-04-25T01:56:24;7.90;99.90
2459;DHT22;1241;50.920;6.936;2023-04-25T01:58:51;7.80;99.90
2459;DHT22;1241;50.920;6.936;2023-04-25T02:01:36;7.70;99.90
2459;DHT22;1241;50.920;6.936;2023-04-25T02:04:15;7.60;99.90
2459;DHT22;1241;50.920;6.936;2023-04-25T02:06:41;7.50;99.90
2459;DHT22;1241;50.920;6.936;2023-04-25T02:09:07;7.40;99.90
2459;DHT22;1241;50.920;6.936;2023-04-25T02:11:32;7.30;99.90
2459;DHT22;1241;50.920;6.936;2023-04-25T02:14:21;7.30;99.90
2459;DHT22;1241;50.920;6.936;2023-04-25T02:16:57;7.30;99.90
2459;DHT22;1241;50.920;6.936;2023-04-25T02:19:23;7.20;99.90
2459;DHT22;1241;50.920;6.936;2023-04-25T02:21:50;7.10;99.90
2459;DHT22;1241;50.920;6.936;2023-04-25T02:24:15;7.20;99.90
2459;DHT22;1241;50.920;6.936;2023-04-25T02:26:41;7.20;99.90
2459;DHT22;1241;50.920;6.936;2023-04-25T02:29:08;7.30;99.90
2459;DHT22;1241;50.920;6.936;2023-04-25T02:31:34;7.30;99.90
2459;DHT22;1241;50.920;6.936;2023-04-25T02:34:00;7.30;99.90
2459;DHT22;1241;50.920;6.936;2023-04-25T02:36:27;7.40;99.90
2459;DHT22;1241;50.920;6.936;2023-04-25T02:38:53;7.50;99.90
2459;DHT22;1241;50.920;6.936;2023-04-25T02:41:20;7.50;99.90
2459;DHT22;1241;50.920;6.936;2023-04-25T02:43:47;7.50;99.90
2459;DHT22;1241;50.920;6.936;2023-04-25T02:46:12;7.50;99.90
2459;DHT22;1241;50.920;6.936;2023-04-25T02:48:38;7.40;99.90
2459;DHT22;1241;50.920;6.936;2023-04-25T02:51:04;7.50;99.90
2459;DHT22;1241;50.920;6.936;2023-04-25T02:53:30;7.50;99.90
2459;DHT22;1241;50.920;6.936;2023-04-25T02:55:56;7.40;99.90
2459;DHT22;1241;50.920;6.936;2023-04-25T02:58:23;7.40;99.90
2459;DHT22;1241;50.920;6.936;2023-04-25T03:00:51;7.40;99.90
2459;DHT22;1241;50.920;6.936;2023-04-25T03:03:17;7.40;99.90
2459;DHT22;1241;50.920;6.936;2023-04-25T03:05:50;7.40;99.90
2459;DHT22;1241;50.920;6.936;2023-04-25T03:08:20;7.40;99.90
2459;DHT22;1241;50.920;6.936;2023-04-25T03:10:46;7.40;99.90
2459;DHT22;1241;50.920;6.936;2023-04-25T03:13:13;7.50;99.90
2459;DHT22;1241;50.920;6.936;2023-04-25T03:15:41;7.50;99.90
2459;DHT22;1241;50.920;6.936;2023-04-25T03:18:07;7.50;99.90
2459;DHT22;1241;50.920;6.936;2023-04-25T03:20:32;7.60;99.90
2459;DHT22;1241;50.920;6.936;2023-04-25T03:22:58;7.50;99.90
2459;DHT22;1241;50.920;6.936;2023-04-25T03:25:24;7.40;99.90
2459;DHT22;1241;50.920;6.936;2023-04-25T03:27:50;7.40;99.90
2459;DHT22;1241;50.920;6.936;2023-04-25T03:30:15;7.50;99.90
2459;DHT22;1241;50.920;6.936;2023-04-25T03:32:43;7.60;99.90
2459;DHT22;1241;50.920;6.936;2023-04-25T03:35:08;7.50;99.90
2459;DHT22;1241;50.920;6.936;2023-04-25T03:37:35;7.70;99.90
2459;DHT22;1241;50.920;6.936;2023-04-25T03:40:01;7.70;99.90
2459;DHT22;1241;50.920;6.936;2023-04-25T03:42:47;7.80;99.90
2459;DHT22;1241;50.920;6.936;2023-04-25T03:45:12;7.80;99.90
2459;DHT22;1241;50.920;6.936;2023-04-25T03:47:40;7.90;99.90
2459;DHT22;1241;50.920;6.936;2023-04-25T03:50:06;7.90;99.90
2459;DHT22;1241;50.920;6.936;2023-04-25T03:52:33;8.00;99.90
2459;DHT22;1241;50.920;6.936;2023-04-25T03:54:58;8.00;99.90
2459;DHT22;1241;50.920;6.936;2023-04-25T03:57:24;8.00;99.90
2459;DHT22;1241;50.920;6.936;2023-04-25T03:59:50;8.10;99.90
2459;DHT22;1241;50.920;6.936;2023-04-25T04:02:17;7.90;99.90
2459;DHT22;1241;50.920;6.936;2023-04-25T04:04:44;7.90;99.90
2459;DHT22;1241;50.920;6.936;2023-04-25T04:07:10;7.90;99.90
2459;DHT22;1241;50.920;6.936;2023-04-25T04:09:39;7.90;99.90
2459;DHT22;1241;50.920;6.936;2023-04-25T04:12:08;7.90;99.90
2459;DHT22;1241;50.920;6.936;2023-04-25T04:14:38;7.80;99.90
2459;DHT22;1241;50.920;6.936;2023-04-25T04:17:04;7.90;99.90
2459;DHT22;1241;50.920;6.936;2023-04-25T04:19:29;7.90;99.90
2459;DHT22;1241;50.920;6.936;2023-04-25T04:22:07;8.00;99.90
2459;DHT22;1241;50.920;6.936;2023-04-25T04:24:34;7.90;99.90
2459;DHT22;1241;50.920;6.936;2023-04-25T04:27:03;7.90;99.90
2459;DHT22;1241;50.920;6.936;2023-04-25T04:29:49;7.80;99.90
2459;DHT22;1241;50.920;6.936;2023-04-25T04:32:40;7.80;99.90
2459;DHT22;1241;50.920;6.936;2023-04-25T04:35:06;7.70;99.90
2459;DHT22;1241;50.920;6.936;2023-04-25T04:37:32;7.70;99.90
2459;DHT22;1241;50.920;6.936;2023-04-25T04:39:59;7.80;99.90
2459;DHT22;1241;50.920;6.936;2023-04-25T04:42:48;7.70;99.90
2459;DHT22;1241;50.920;6.936;2023-04-25T04:45:40;7.90;99.90
2459;DHT22;1241;50.920;6.936;2023-04-25T04:48:21;8.00;99.90
2459;DHT22;1241;50.920;6.936;2023-04-25T04:50:58;8.00;99.90
2459;DHT22;1241;50.920;6.936;2023-04-25T04:53:47;8.00;99.90
2459;DHT22;1241;50.920;6.936;2023-04-25T04:56:31;7.90;99.90
2459;DHT22;1241;50.920;6.936;2023-04-25T04:59:13;8.00;99.90
2459;DHT22;1241;50.920;6.936;2023-04-25T05:01:57;8.00;99.90
2459;DHT22;1241;50.920;6.936;2023-04-25T05:04:41;8.10;99.90
2459;DHT22;1241;50.920;6.936;2023-04-25T05:07:43;8.20;99.90
2459;DHT22;1241;50.920;6.936;2023-04-25T05:10:29;8.30;99.90
2459;DHT22;1241;50.920;6.936;2023-04-25T05:13:18;8.40;99.90
2459;DHT22;1241;50.920;6.936;2023-04-25T05:16:04;8.40;99.90
2459;DHT22;1241;50.920;6.936;2023-04-25T05:18:48;8.60;99.90
2459;DHT22;1241;50.920;6.936;2023-04-25T05:21:41;8.50;99.90
2459;DHT22;1241;50.920;6.936;2023-04-25T05:24:31;8.70;99.90
2459;DHT22;1241;50.920;6.936;2023-04-25T05:27:20;8.90;99.90
2459;DHT22;1241;50.920;6.936;2023-04-25T05:30:08;9.00;99.90
2459;DHT22;1241;50.920;6.936;2023-04-25T05:32:53;9.10;99.90
2459;DHT22;1241;50.920;6.936;2023-04-25T05:35:19;9.20;99.90
2459;DHT22;1241;50.920;6.936;2023-04-25T05:37:47;9.20;99.90
2459;DHT22;1241;50.920;6.936;2023-04-25T05:40:14;9.30;99.90
2459;DHT22;1241;50.920;6.936;2023-04-25T05:42:58;9.40;99.90
2459;DHT22;1241;50.920;6.936;2023-04-25T05:45:53;9.60;99.90
2459;DHT22;1241;50.920;6.936;2023-04-25T05:48:37;9.70;99.90
2459;DHT22;1241;50.920;6.936;2023-04-25T05:51:16;9.70;99.90
2459;DHT22;1241;50.920;6.936;2023-04-25T05:54:06;9.60;99.90
2459;DHT22;1241;50.920;6.936;2023-04-25T05:56:33;9.70;99.90
2459;DHT22;1241;50.920;6.936;2023-04-25T05:59:00;9.70;99.90
2459;DHT22;1241;50.920;6.936;2023-04-25T06:01:25;9.60;99.90
2459;DHT22;1241;50.920;6.936;2023-04-25T06:03:51;9.70;99.90
2459;DHT22;1241;50.920;6.936;2023-04-25T06:06:18;9.70;99.90
2459;DHT22;1241;50.920;6.936;2023-04-25T06:08:44;9.80;99.90
2459;DHT22;1241;50.920;6.936;2023-04-25T06:11:11;9.80;99.90
2459;DHT22;1241;50.920;6.936;2023-04-25T06:13:37;9.90;99.90
2459;DHT22;1241;50.920;6.936;2023-04-25T06:16:02;10.10;99.90
2459;DHT22;1241;50.920;6.936;2023-04-25T06:18:28;10.50;99.90
2459;DHT22;1241;50.920;6.936;2023-04-25T06:20:54;10.70;99.90
2459;DHT22;1241;50.920;6.936;2023-04-25T06:23:21;11.10;99.90
2459;DHT22;1241;50.920;6.936;2023-04-25T06:26:10;11.80;99.90
2459;DHT22;1241;50.920;6.936;2023-04-25T06:28:38;12.20;99.90
2459;DHT22;1241;50.920;6.936;2023-04-25T06:31:04;12.30;99.90
2459;DHT22;1241;50.920;6.936;2023-04-25T06:33:30;12.10;99.90
2459;DHT22;1241;50.920;6.936;2023-04-25T06:35:55;11.60;99.90
2459;DHT22;1241;50.920;6.936;2023-04-25T06:38:25;11.50;99.90
2459;DHT22;1241;50.920;6.936;2023-04-25T06:40:51;11.40;99.90
2459;DHT22;1241;50.920;6.936;2023-04-25T06:43:18;11.50;99.90
2459;DHT22;1241;50.920;6.936;2023-04-25T06:46:04;11.60;99.90
2459;DHT22;1241;50.920;6.936;2023-04-25T06:48:33;11.50;99.90
2459;DHT22;1241;50.920;6.936;2023-04-25T06:50:58;11.50;99.90
2459;DHT22;1241;50.920;6.936;2023-04-25T06:53:25;11.60;99.90
2459;DHT22;1241;50.920;6.936;2023-04-25T06:55:57;11.60;99.90
2459;DHT22;1241;50.920;6.936;2023-04-25T06:58:25;11.60;99.90
2459;DHT22;1241;50.920;6.936;2023-04-25T07:01:10;12.20;99.90
2459;DHT22;1241;50.920;6.936;2023-04-25T07:03:36;13.10;99.90
2459;DHT22;1241;50.920;6.936;2023-04-25T07:06:07;13.30;99.90
2459;DHT22;1241;50.920;6.936;2023-04-25T07:08:33;13.30;99.90
2459;DHT22;1241;50.920;6.936;2023-04-25T07:10:58;13.00;99.90
2459;DHT22;1241;50.920;6.936;2023-04-25T07:13:24;12.80;99.90
2459;DHT22;1241;50.920;6.936;2023-04-25T07:15:50;12.90;99.90
2459;DHT22;1241;50.920;6.936;2023-04-25T07:18:18;12.40;99.90
2459;DHT22;1241;50.920;6.936;2023-04-25T07:20:44;12.30;99.90
2459;DHT22;1241;50.920;6.936;2023-04-25T07:23:10;12.40;99.90
2459;DHT22;1241;50.920;6.936;2023-04-25T07:25:36;12.40;99.90
2459;DHT22;1241;50.920;6.936;2023-04-25T07:28:01;12.00;99.90
2459;DHT22;1241;50.920;6.936;2023-04-25T07:30:28;11.70;99.90
2459;DHT22;1241;50.920;6.936;2023-04-25T07:32:54;11.70;99.90
2459;DHT22;1241;50.920;6.936;2023-04-25T07:35:19;12.00;99.90
2459;DHT22;1241;50.920;6.936;2023-04-25T07:37:46;12.00;99.90
2459;DHT22;1241;50.920;6.936;2023-04-25T07:40:15;12.00;99.90
2459;DHT22;1241;50.920;6.936;2023-04-25T07:42:45;12.00;99.90
2459;DHT22;1241;50.920;6.936;2023-04-25T07:45:15;12.10;99.90
2459;DHT22;1241;50.920;6.936;2023-04-25T07:47:42;12.50;99.90
2459;DHT22;1241;50.920;6.936;2023-04-25T07:50:08;12.70;99.90
2459;DHT22;1241;50.920;6.936;2023-04-25T07:52:34;13.10;99.90
2459;DHT22;1241;50.920;6.936;2023-04-25T07:55:14;13.20;99.90
2459;DHT22;1241;50.920;6.936;2023-04-25T07:57:50;13.50;99.90
2459;DHT22;1241;50.920;6.936;2023-04-25T08:00:16;13.50;99.90
2459;DHT22;1241;50.920;6.936;2023-04-25T08:02:48;13.50;99.90
2459;DHT22;1241;50.920;6.936;2023-04-25T08:05:16;13.20;99.90
2459;DHT22;1241;50.920;6.936;2023-04-25T08:07:45;13.40;99.90
2459;DHT22;1241;50.920;6.936;2023-04-25T08:10:11;13.60;99.90
2459;DHT22;1241;50.920;6.936;2023-04-25T08:12:37;13.80;99.90
2459;DHT22;1241;50.920;6.936;2023-04-25T08:15:04;13.80;99.90
2459;DHT22;1241;50.920;6.936;2023-04-25T08:17:34;13.90;99.90
2459;DHT22;1241;50.920;6.936;2023-04-25T08:20:00;13.80;99.90
2459;DHT22;1241;50.920;6.936;2023-04-25T08:22:30;13.70;99.90
2459;DHT22;1241;50.920;6.936;2023-04-25T08:25:19;14.10;99.90
2459;DHT22;1241;50.920;6.936;2023-04-25T08:27:45;14.00;99.90
2459;DHT22;1241;50.920;6.936;2023-04-25T08:30:13;13.60;99.90
2459;DHT22;1241;50.920;6.936;2023-04-25T08:32:40;13.60;99.90
2459;DHT22;1241;50.920;6.936;2023-04-25T08:35:26;13.60;99.90
2459;DHT22;1241;50.920;6.936;2023-04-25T08:37:52;13.30;99.90
2459;DHT22;1241;50.920;6.936;2023-04-25T08:40:19;13.30;99.90
2459;DHT22;1241;50.920;6.936;2023-04-25T08:43:06;13.20;99.90
2459;DHT22;1241;50.920;6.936;2023-04-25T08:45:39;13.20;99.90
2459;DHT22;1241;50.920;6.936;2023-04-25T08:48:15;13.40;99.90
2459;DHT22;1241;50.920;6.936;2023-04-25T08:50:52;13.70;99.90
2459;DHT22;1241;50.920;6.936;2023-04-25T08:53:25;13.80;99.90
2459;DHT22;1241;50.920;6.936;2023-04-25T08:55:56;14.20;99.90
2459;DHT22;1241;50.920;6.936;2023-04-25T08:58:23;14.30;99.90
2459;DHT22;1241;50.920;6.936;2023-04-25T09:00:50;14.30;99.90
2459;DHT22;1241;50.920;6.936;2023-04-25T09:03:18;14.40;99.90
2459;DHT22;1241;50.920;6.936;2023-04-25T09:05:46;14.30;99.90
2459;DHT22;1241;50.920;6.936;2023-04-25T09:08:14;14.20;99.90
2459;DHT22;1241;50.920;6.936;2023-04-25T09:10:41;14.00;99.90
2459;DHT22;1241;50.920;6.936;2023-04-25T09:13:08;13.70;99.90
2459;DHT22;1241;50.920;6.936;2023-04-25T09:16:05;13.50;99.90
2459;DHT22;1241;50.920;6.936;2023-04-25T09:18:39;13.40;99.90
2459;DHT22;1241;50.920;6.936;2023-04-25T09:21:07;13.00;99.90
2459;DHT22;1241;50.920;6.936;2023-04-25T09:23:43;12.90;99.90
2459;DHT22;1241;50.920;6.936;2023-04-25T09:26:09;13.00;99.90
2459;DHT22;1241;50.920;6.936;2023-04-25T09:28:35;13.00;99.90
2459;DHT22;1241;50.920;6.936;2023-04-25T09:31:03;12.90;99.90
2459;DHT22;1241;50.920;6.936;2023-04-25T09:33:34;12.60;99.90
2459;DHT22;1241;50.920;6.936;2023-04-25T09:36:06;12.80;99.90
2459;DHT22;1241;50.920;6.936;2023-04-25T09:38:59;12.80;99.90
2459;DHT22;1241;50.920;6.936;2023-04-25T09:41:32;12.90;99.90
2459;DHT22;1241;50.920;6.936;2023-04-25T09:44:03;13.20;99.90
2459;DHT22;1241;50.920;6.936;2023-04-25T09:46:35;13.40;99.90
2459;DHT22;1241;50.920;6.936;2023-04-25T09:49:06;13.50;99.90
2459;DHT22;1241;50.920;6.936;2023-04-25T09:51:41;13.50;99.90
2459;DHT22;1241;50.920;6.936;2023-04-25T09:54:08;13.60;99.90
2459;DHT22;1241;50.920;6.936;2023-04-25T09:56:41;13.40;99.90
2459;DHT22;1241;50.920;6.936;2023-04-25T09:59:07;13.00;99.90
2459;DHT22;1241;50.920;6.936;2023-04-25T10:01:36;12.90;99.90
2459;DHT22;1241;50.920;6.936;2023-04-25T10:04:11;13.10;99.90
2459;DHT22;1241;50.920;6.936;2023-04-25T10:06:58;13.30;99.90
2459;DHT22;1241;50.920;6.936;2023-04-25T10:09:25;13.30;99.90
2459;DHT22;1241;50.920;6.936;2023-04-25T10:11:52;13.40;99.90
2459;DHT22;1241;50.920;6.936;2023-04-25T10:14:19;13.30;99.90
2459;DHT22;1241;50.920;6.936;2023-04-25T10:16:45;13.10;99.90
2459;DHT22;1241;50.920;6.936;2023-04-25T10:19:12;12.50;99.90
2459;DHT22;1241;50.920;6.936;2023-04-25T10:22:02;12.20;99.90
2459;DHT22;1241;50.920;6.936;2023-04-25T10:24:28;12.10;99.90
2459;DHT22;1241;50.920;6.936;2023-04-25T10:26:56;12.10;99.90
2459;DHT22;1241;50.920;6.936;2023-04-25T10:29:25;12.20;99.90
2459;DHT22;1241;50.920;6.936;2023-04-25T10:31:52;12.30;99.90
2459;DHT22;1241;50.920;6.936;2023-04-25T10:34:18;12.50;99.90
2459;DHT22;1241;50.920;6.936;2023-04-25T10:36:50;12.60;99.90
2459;DHT22;1241;50.920;6.936;2023-04-25T10:39:25;12.90;99.90
2459;DHT22;1241;50.920;6.936;2023-04-25T10:44:20;12.90;99.90
2459;DHT22;1241;50.920;6.936;2023-04-25T10:46:47;12.90;99.90
2459;DHT22;1241;50.920;6.936;2023-04-25T10:49:41;13.00;99.90
2459;DHT22;1241;50.920;6.936;2023-04-25T10:54:41;13.60;99.90
2459;DHT22;1241;50.920;6.936;2023-04-25T10:57:07;13.40;99.90
2459;DHT22;1241;50.920;6.936;2023-04-25T10:59:33;13.40;99.90
2459;DHT22;1241;50.920;6.936;2023-04-25T11:01:59;13.10;99.90
2459;DHT22;1241;50.920;6.936;2023-04-25T11:04:29;12.90;99.90
2459;DHT22;1241;50.920;6.936;2023-04-25T11:09:24;12.30;99.90
2459;DHT22;1241;50.920;6.936;2023-04-25T11:11:57;12.40;99.90
2459;DHT22;1241;50.920;6.936;2023-04-25T11:14:24;12.30;99.90
2459;DHT22;1241;50.920;6.936;2023-04-25T11:16:57;12.40;99.90
2459;DHT22;1241;50.920;6.936;2023-04-25T11:19:24;12.40;99.90
2459;DHT22;1241;50.920;6.936;2023-04-25T11:21:50;12.60;99.90
2459;DHT22;1241;50.920;6.936;2023-04-25T11:24:16;12.90;99.90
2459;DHT22;1241;50.920;6.936;2023-04-25T11:26:43;13.20;99.90
2459;DHT22;1241;50.920;6.936;2023-04-25T11:29:11;13.60;99.90
2459;DHT22;1241;50.920;6.936;2023-04-25T11:31:37;14.00;99.90
2459;DHT22;1241;50.920;6.936;2023-04-25T11:34:03;14.10;96.30
2459;DHT22;1241;50.920;6.936;2023-04-25T11:36:29;14.20;95.00
2459;DHT22;1241;50.920;6.936;2023-04-25T11:38:56;14.20;97.20
2459;DHT22;1241;50.920;6.936;2023-04-25T11:41:22;14.20;96.80
2459;DHT22;1241;50.920;6.936;2023-04-25T11:43:48;14.20;97.40
2459;DHT22;1241;50.920;6.936;2023-04-25T11:46:15;14.30;98.40
2459;DHT22;1241;50.920;6.936;2023-04-25T11:48:41;14.30;98.20
2459;DHT22;1241;50.920;6.936;2023-04-25T11:51:08;14.40;99.90
2459;DHT22;1241;50.920;6.936;2023-04-25T11:53:34;14.60;99.60
2459;DHT22;1241;50.920;6.936;2023-04-25T11:56:00;14.90;98.30
2459;DHT22;1241;50.920;6.936;2023-04-25T11:58:26;15.00;98.90
2459;DHT22;1241;50.920;6.936;2023-04-25T12:00:52;14.80;97.40
2459;DHT22;1241;50.920;6.936;2023-04-25T12:03:18;14.10;94.30
2459;DHT22;1241;50.920;6.936;2023-04-25T12:05:45;13.70;95.60
2459;DHT22;1241;50.920;6.936;2023-04-25T12:08:15;13.60;95.90
2459;DHT22;1241;50.920;6.936;2023-04-25T12:10:42;13.30;91.30
2459;DHT22;1241;50.920;6.936;2023-04-25T12:13:25;13.20;89.60
2459;DHT22;1241;50.920;6.936;2023-04-25T12:15:53;13.20;90.40
2459;DHT22;1241;50.920;6.936;2023-04-25T12:18:20;13.20;90.90
2459;DHT22;1241;50.920;6.936;2023-04-25T12:20:46;13.30;91.00
2459;DHT22;1241;50.920;6.936;2023-04-25T12:23:12;13.50;90.70
2459;DHT22;1241;50.920;6.936;2023-04-25T12:25:39;13.70;91.80
2459;DHT22;1241;50.920;6.936;2023-04-25T12:28:12;13.70;89.20
2459;DHT22;1241;50.920;6.936;2023-04-25T12:31:00;14.10;91.70
2459;DHT22;1241;50.920;6.936;2023-04-25T12:33:37;14.70;87.70
2459;DHT22;1241;50.920;6.936;2023-04-25T12:36:04;15.20;85.80
2459;DHT22;1241;50.920;6.936;2023-04-25T12:38:41;15.30;84.10
2459;DHT22;1241;50.920;6.936;2023-04-25T12:41:08;15.30;81.90
2459;DHT22;1241;50.920;6.936;2023-04-25T12:43:34;15.30;79.80
2459;DHT22;1241;50.920;6.936;2023-04-25T12:46:00;15.20;82.00
2459;DHT22;1241;50.920;6.936;2023-04-25T12:48:26;15.10;80.80
2459;DHT22;1241;50.920;6.936;2023-04-25T12:50:52;15.10;83.80
2459;DHT22;1241;50.920;6.936;2023-04-25T12:53:22;15.30;80.00
2459;DHT22;1241;50.920;6.936;2023-04-25T12:55:48;15.30;77.80
2459;DHT22;1241;50.920;6.936;2023-04-25T12:58:15;15.10;80.90
2459;DHT22;1241;50.920;6.936;2023-04-25T13:00:41;14.90;81.40
2459;DHT22;1241;50.920;6.936;2023-04-25T13:03:07;14.80;84.40
2459;DHT22;1241;50.920;6.936;2023-04-25T13:05:33;14.60;81.50
2459;DHT22;1241;50.920;6.936;2023-04-25T13:07:59;14.50;86.00
2459;DHT22;1241;50.920;6.936;2023-04-25T13:10:24;14.50;84.90
2459;DHT22;1241;50.920;6.936;2023-04-25T13:12:50;14.40;81.40
2459;DHT22;1241;50.920;6.936;2023-04-25T13:15:16;14.30;84.50
2459;DHT22;1241;50.920;6.936;2023-04-25T13:17:42;14.10;84.20
2459;DHT22;1241;50.920;6.936;2023-04-25T13:20:08;13.70;86.00
2459;DHT22;1241;50.920;6.936;2023-04-25T13:22:35;13.70;84.50
2459;DHT22;1241;50.920;6.936;2023-04-25T13:25:05;13.40;84.30
2459;DHT22;1241;50.920;6.936;2023-04-25T13:27:32;13.30;87.90
2459;DHT22;1241;50.920;6.936;2023-04-25T13:30:00;13.30;89.00
2459;DHT22;1241;50.920;6.936;2023-04-25T13:32:27;13.30;90.20
2459;DHT22;1241;50.920;6.936;2023-04-25T13:34:53;13.30;88.00
2459;DHT22;1241;50.920;6.936;2023-04-25T13:37:18;13.20;84.60
2459;DHT22;1241;50.920;6.936;2023-04-25T13:39:44;12.90;87.60
2459;DHT22;1241;50.920;6.936;2023-04-25T13:42:10;12.90;85.30
2459;DHT22;1241;50.920;6.936;2023-04-25T13:44:36;12.90;86.60
2459;DHT22;1241;50.920;6.936;2023-04-25T13:47:02;13.00;86.10
2459;DHT22;1241;50.920;6.936;2023-04-25T13:49:28;13.00;84.60
2459;DHT22;1241;50.920;6.936;2023-04-25T13:51:54;13.10;85.00
2459;DHT22;1241;50.920;6.936;2023-04-25T13:54:19;13.20;78.60
2459;DHT22;1241;50.920;6.936;2023-04-25T13:56:45;13.00;78.30
2459;DHT22;1241;50.920;6.936;2023-04-25T13:59:11;13.10;80.80
2459;DHT22;1241;50.920;6.936;2023-04-25T14:01:36;13.30;80.00
2459;DHT22;1241;50.920;6.936;2023-04-25T14:04:02;13.50;76.00
2459;DHT22;1241;50.920;6.936;2023-04-25T14:06:32;13.40;77.70
2459;DHT22;1241;50.920;6.936;2023-04-25T14:08:58;13.30;73.30
2459;DHT22;1241;50.920;6.936;2023-04-25T14:11:26;13.20;69.60
2459;DHT22;1241;50.920;6.936;2023-04-25T14:13:51;13.10;72.30
2459;DHT22;1241;50.920;6.936;2023-04-25T14:16:17;13.20;74.00
2459;DHT22;1241;50.920;6.936;2023-04-25T14:18:43;13.40;72.80
2459;DHT22;1241;50.920;6.936;2023-04-25T14:21:09;13.40;72.20
2459;DHT22;1241;50.920;6.936;2023-04-25T14:23:35;13.20;72.90
2459;DHT22;1241;50.920;6.936;2023-04-25T14:26:01;13.20;74.40
2459;DHT22;1241;50.920;6.936;2023-04-25T14:28:27;13.20;78.70
2459;DHT22;1241;50.920;6.936;2023-04-25T14:30:53;13.20;81.20
2459;DHT22;1241;50.920;6.936;2023-04-25T14:33:18;13.20;80.10
2459;DHT22;1241;50.920;6.936;2023-04-25T14:35:44;13.10;80.00
2459;DHT22;1241;50.920;6.936;2023-04-25T14:38:10;12.90;74.70
2459;DHT22;1241;50.920;6.936;2023-04-25T14:40:36;12.90;72.00
2459;DHT22;1241;50.920;6.936;2023-04-25T14:43:02;12.70;70.80
2459;DHT22;1241;50.920;6.936;2023-04-25T14:45:28;12.50;71.40
2459;DHT22;1241;50.920;6.936;2023-04-25T14:47:54;12.60;73.40
2459;DHT22;1241;50.920;6.936;2023-04-25T14:50:20;12.60;72.40
2459;DHT22;1241;50.920;6.936;2023-04-25T14:52:46;12.60;72.30
2459;DHT22;1241;50.920;6.936;2023-04-25T14:55:11;12.60;72.60
2459;DHT22;1241;50.920;6.936;2023-04-25T14:57:37;12.70;71.80
2459;DHT22;1241;50.920;6.936;2023-04-25T15:00:05;12.80;75.90
2459;DHT22;1241;50.920;6.936;2023-04-25T15:02:35;13.00;81.00
2459;DHT22;1241;50.920;6.936;2023-04-25T15:05:01;13.00;81.80
2459;DHT22;1241;50.920;6.936;2023-04-25T15:07:26;13.10;84.20
2459;DHT22;1241;50.920;6.936;2023-04-25T15:09:52;13.20;84.40
2459;DHT22;1241;50.920;6.936;2023-04-25T15:12:18;13.30;80.60
2459;DHT22;1241;50.920;6.936;2023-04-25T15:14:44;13.20;79.80
2459;DHT22;1241;50.920;6.936;2023-04-25T15:17:10;13.30;79.30
2459;DHT22;1241;50.920;6.936;2023-04-25T15:19:39;13.10;81.20
2459;DHT22;1241;50.920;6.936;2023-04-25T15:22:05;13.00;84.60
2459;DHT22;1241;50.920;6.936;2023-04-25T15:24:32;13.00;88.00
2459;DHT22;1241;50.920;6.936;2023-04-25T15:26:58;13.00;84.30
2459;DHT22;1241;50.920;6.936;2023-04-25T15:29:24;13.10;85.00
2459;DHT22;1241;50.920;6.936;2023-04-25T15:31:50;13.10;84.70
2459;DHT22;1241;50.920;6.936;2023-04-25T15:34:15;13.00;82.90
2459;DHT22;1241;50.920;6.936;2023-04-25T15:36:41;13.00;84.90
2459;DHT22;1241;50.920;6.936;2023-04-25T15:39:07;13.10;86.60
2459;DHT22;1241;50.920;6.936;2023-04-25T15:41:33;13.10;84.60
2459;DHT22;1241;50.920;6.936;2023-04-25T15:43:59;13.20;82.70
2459;DHT22;1241;50.920;6.936;2023-04-25T15:46:28;13.30;82.00
2459;DHT22;1241;50.920;6.936;2023-04-25T15:48:55;13.40;84.30
2459;DHT22;1241;50.920;6.936;2023-04-25T15:51:21;13.40;86.60
2459;DHT22;1241;50.920;6.936;2023-04-25T15:53:47;13.60;87.20
2459;DHT22;1241;50.920;6.936;2023-04-25T15:56:13;13.80;85.10
2459;DHT22;1241;50.920;6.936;2023-04-25T15:58:38;13.80;83.90
2459;DHT22;1241;50.920;6.936;2023-04-25T16:01:04;13.30;81.10
2459;DHT22;1241;50.920;6.936;2023-04-25T16:03:30;13.20;85.50
2459;DHT22;1241;50.920;6.936;2023-04-25T16:05:56;13.20;87.00
2459;DHT22;1241;50.920;6.936;2023-04-25T16:08:22;13.20;87.10
2459;DHT22;1241;50.920;6.936;2023-04-25T16:10:48;13.30;89.90
2459;DHT22;1241;50.920;6.936;2023-04-25T16:13:13;13.30;90.30
2459;DHT22;1241;50.920;6.936;2023-04-25T16:15:40;13.10;90.80
2459;DHT22;1241;50.920;6.936;2023-04-25T16:18:05;13.10;92.30
2459;DHT22;1241;50.920;6.936;2023-04-25T16:20:32;13.20;91.50
2459;DHT22;1241;50.920;6.936;2023-04-25T16:22:58;13.40;91.10
2459;DHT22;1241;50.920;6.936;2023-04-25T16:25:24;13.50;86.60
2459;DHT22;1241;50.920;6.936;2023-04-25T16:27:50;13.60;87.30